createdAt,value
2023-11-03T00:01:36.173Z,68.88
2023-11-03T00:04:10.330Z,68.60
2023-11-03T00:06:44.976Z,69.25
2023-11-03T00:09:15.796Z,68.33
2023-11-03T00:11:44.311Z,68.77
2023-11-03T00:14:13.910Z,69.01
2023-11-03T00:16:42.217Z,68.94
2023-11-03T00:19:11.181Z,68.79
2023-11-03T00:21:39.087Z,69.49
2023-11-03T00:24:10.641Z,69.22
2023-11-03T00:26:38.964Z,68.97
2023-11-03T00:29:08.829Z,69.65
2023-11-03T00:31:36.766Z,68.92
2023-11-03T00:34:06.235Z,68.66
2023-11-03T00:36:34.238Z,69.46
2023-11-03T00:39:02.850Z,69.13
2023-11-03T00:41:33.081Z,69.50
2023-11-03T00:44:00.964Z,70.09
2023-11-03T00:46:28.870Z,68.23
2023-11-03T00:48:58.713Z,68.96
2023-11-03T00:51:26.871Z,68.50
2023-11-03T00:53:54.771Z,68.03
2023-11-03T00:56:22.850Z,67.40
2023-11-03T00:58:53.181Z,67.94
2023-11-03T01:01:21.051Z,68.18
2023-11-03T01:03:49.174Z,68.20
2023-11-03T01:06:17.530Z,68.17
2023-11-03T01:08:45.380Z,68.97
2023-11-03T01:11:14.531Z,68.10
2023-11-03T01:13:43.111Z,68.84
2023-11-03T01:16:12.353Z,68.84
2023-11-03T01:18:42.035Z,69.03
2023-11-03T01:21:13.982Z,68.70
2023-11-03T01:23:43.304Z,69.03
2023-11-03T01:26:11.249Z,69.09
2023-11-03T01:28:39.145Z,69.84
2023-11-03T01:31:09.843Z,68.52
2023-11-03T01:33:42.179Z,69.36
2023-11-03T01:36:10.716Z,69.52
2023-11-03T01:38:40.431Z,69.56
2023-11-03T01:41:10.335Z,68.80
2023-11-03T01:43:38.688Z,68.86
2023-11-03T01:46:07.337Z,69.50
2023-11-03T01:48:36.408Z,69.14
2023-11-03T01:51:06.888Z,69.50
2023-11-03T01:53:35.607Z,69.27
2023-11-03T01:56:05.298Z,69.29
2023-11-03T01:58:33.723Z,69.30
2023-11-03T02:01:03.182Z,69.66
2023-11-03T02:03:31.962Z,69.96
2023-11-03T02:06:00.661Z,70.62
2023-11-03T02:08:30.408Z,70.21
2023-11-03T02:10:58.966Z,70.46
2023-11-03T02:13:30.821Z,70.45
2023-11-03T02:15:59.443Z,70.09
2023-11-03T02:18:27.934Z,70.14
2023-11-03T02:20:56.663Z,70.49
2023-11-03T02:23:26.842Z,70.92
2023-11-03T02:25:55.021Z,70.04
2023-11-03T02:28:22.976Z,70.64
2023-11-03T02:30:51.103Z,70.93
2023-11-03T02:33:19.556Z,70.77
2023-11-03T02:35:49.515Z,71.64
2023-11-03T02:38:18.072Z,71.85
2023-11-03T02:40:48.910Z,71.33
2023-11-03T02:43:17.583Z,71.09
2023-11-03T02:45:45.966Z,72.35
2023-11-03T02:48:13.940Z,72.34
2023-11-03T02:50:41.822Z,73.04
2023-11-03T02:53:10.656Z,73.14
2023-11-03T02:55:39.516Z,73.15
2023-11-03T02:58:10.142Z,72.85
2023-11-03T03:00:38.670Z,73.04
2023-11-03T03:03:08.117Z,73.37
2023-11-03T03:05:37.619Z,73.66
2023-11-03T03:08:06.754Z,73.64
2023-11-03T03:10:35.995Z,73.23
2023-11-03T03:13:05.370Z,72.89
2023-11-03T03:15:35.461Z,72.62
2023-11-03T03:18:03.938Z,72.98
2023-11-03T03:20:31.914Z,72.76
2023-11-03T03:22:59.797Z,73.84
2023-11-03T03:25:28.194Z,72.46
2023-11-03T03:27:56.935Z,72.53
2023-11-03T03:30:24.925Z,73.22
2023-11-03T03:32:54.737Z,73.03
2023-11-03T03:35:23.439Z,72.42
2023-11-03T03:37:51.274Z,72.58
2023-11-03T03:40:19.303Z,73.13
2023-11-03T03:42:47.136Z,72.75
2023-11-03T03:45:17.206Z,72.47
2023-11-03T03:47:45.343Z,73.03
2023-11-03T03:50:14.679Z,72.17
2023-11-03T03:52:42.646Z,73.53
2023-11-03T03:55:10.539Z,72.24
2023-11-03T03:57:38.440Z,72.63
2023-11-03T04:00:08.399Z,73.49
2023-11-03T04:02:36.252Z,74.13
2023-11-03T04:05:04.184Z,73.69
2023-11-03T04:07:33.692Z,74.03
2023-11-03T04:10:02.216Z,73.43
2023-11-03T04:12:30.774Z,73.08
2023-11-03T04:14:59.399Z,73.89
2023-11-03T04:17:28.047Z,73.57
2023-11-03T04:19:57.287Z,73.34
2023-11-03T04:22:25.303Z,73.59
2023-11-03T04:24:54.590Z,73.52
2023-11-03T04:27:22.664Z,73.52
2023-11-03T04:29:50.908Z,73.75
2023-11-03T04:32:18.801Z,74.79
2023-11-03T04:34:46.725Z,74.30
2023-11-03T04:37:14.744Z,74.70
2023-11-03T04:39:43.250Z,74.39
2023-11-03T04:42:13.432Z,75.63
2023-11-03T04:44:41.539Z,75.40
2023-11-03T04:47:09.996Z,74.79
2023-11-03T04:49:38.015Z,75.66
2023-11-03T04:52:06.266Z,75.48
2023-11-03T04:54:34.157Z,74.89
2023-11-03T04:57:02.295Z,75.53
2023-11-03T04:59:32.169Z,75.70
2023-11-03T05:02:00.245Z,75.88
2023-11-03T05:04:28.598Z,75.54
2023-11-03T05:06:57.826Z,75.42
2023-11-03T05:09:25.966Z,75.32
2023-11-03T05:11:53.848Z,75.99
2023-11-03T05:14:21.777Z,76.25
2023-11-03T05:16:51.002Z,77.07
2023-11-03T05:19:19.293Z,76.67
2023-11-03T05:21:47.328Z,76.68
2023-11-03T05:24:15.856Z,77.18
2023-11-03T05:26:44.005Z,76.82
2023-11-03T05:29:19.269Z,76.30
2023-11-03T05:31:57.951Z,75.71
2023-11-03T05:34:26.128Z,75.76
2023-11-03T05:36:54.439Z,75.57
2023-11-03T05:39:22.789Z,76.33
2023-11-03T05:41:50.674Z,76.82
2023-11-03T05:44:18.498Z,76.49
2023-11-03T05:46:46.365Z,76.34
2023-11-03T05:49:16.267Z,76.17
2023-11-03T05:51:44.874Z,76.35
2023-11-03T05:54:13.574Z,76.58
2023-11-03T05:56:41.945Z,76.82
2023-11-03T05:59:10.171Z,76.51
2023-11-03T06:01:38.392Z,75.77
2023-11-03T06:04:07.137Z,76.20
2023-11-03T06:06:37.143Z,75.83
2023-11-03T06:09:06.445Z,76.20
2023-11-03T06:11:34.521Z,75.81
2023-11-03T06:14:02.305Z,75.64
2023-11-03T06:16:31.024Z,76.40
2023-11-03T06:18:59.987Z,76.40
2023-11-03T06:21:27.980Z,76.55
2023-11-03T06:23:57.427Z,75.77
2023-11-03T06:26:25.298Z,76.06
2023-11-03T06:28:55.547Z,76.18
2023-11-03T06:31:23.539Z,76.37
2023-11-03T06:33:51.659Z,76.10
2023-11-03T06:36:20.857Z,76.06
2023-11-03T06:38:48.982Z,76.48
2023-11-03T06:41:18.279Z,76.67
2023-11-03T06:43:48.922Z,75.70
2023-11-03T06:46:18.036Z,75.70
2023-11-03T06:48:46.148Z,76.35
2023-11-03T06:51:14.458Z,76.29
2023-11-03T06:53:42.342Z,76.48
2023-11-03T06:56:11.141Z,77.34
2023-11-03T06:58:41.499Z,76.94
2023-11-03T07:01:10.112Z,76.54
2023-11-03T07:03:38.198Z,76.75
2023-11-03T07:06:07.689Z,77.41
2023-11-03T07:08:35.508Z,77.15
2023-11-03T07:11:03.438Z,77.17
2023-11-03T07:13:31.512Z,76.69
2023-11-03T07:16:01.248Z,76.09
2023-11-03T07:18:30.297Z,75.72
2023-11-03T07:20:59.286Z,76.46
2023-11-03T07:23:28.084Z,76.09
2023-11-03T07:25:57.642Z,76.49
2023-11-03T07:28:25.891Z,77.07
2023-11-03T07:30:54.431Z,76.45
2023-11-03T07:33:24.880Z,76.84
2023-11-03T07:35:54.035Z,76.89
2023-11-03T07:38:23.316Z,76.45
2023-11-03T07:40:52.227Z,77.00
2023-11-03T07:43:21.195Z,77.30
2023-11-03T07:45:51.728Z,77.28
2023-11-03T07:48:20.079Z,77.26
2023-11-03T07:50:49.362Z,76.74
2023-11-03T07:53:18.022Z,76.72
2023-11-03T07:55:47.107Z,76.94
2023-11-03T07:58:15.706Z,77.07
2023-11-03T08:00:44.057Z,76.87
2023-11-03T08:03:14.351Z,76.65
2023-11-03T08:05:42.676Z,77.36
2023-11-03T08:08:12.352Z,77.51
2023-11-03T08:10:40.507Z,77.48
2023-11-03T08:13:08.336Z,75.63
2023-11-03T08:15:37.091Z,75.83
2023-11-03T08:18:06.958Z,76.23
2023-11-03T08:20:35.745Z,77.16
2023-11-03T08:23:04.329Z,77.08
2023-11-03T08:25:33.622Z,77.68
2023-11-03T08:28:02.421Z,76.76
2023-11-03T08:30:30.317Z,77.55
2023-11-03T08:32:58.996Z,78.47
2023-11-03T08:35:27.520Z,78.86
2023-11-03T08:37:56.509Z,81.35
2023-11-03T08:40:25.368Z,83.27
2023-11-03T08:42:56.417Z,85.92
2023-11-03T08:45:26.564Z,87.50
2023-11-03T08:47:55.715Z,90.40
2023-11-03T08:50:24.793Z,92.80
2023-11-03T08:52:53.387Z,93.80
2023-11-03T08:55:21.393Z,95.34
2023-11-03T08:57:49.325Z,97.78
2023-11-03T09:00:20.847Z,98.36
2023-11-03T09:02:49.718Z,98.56
2023-11-03T09:05:18.872Z,98.98
2023-11-03T09:07:47.190Z,98.93
2023-11-03T09:10:16.808Z,100.00
2023-11-03T09:12:45.143Z,100.00
2023-11-03T09:15:13.478Z,100.00
2023-11-03T09:17:45.545Z,100.00
2023-11-03T09:20:15.967Z,100.00
2023-11-03T09:22:44.181Z,100.00
2023-11-03T09:25:13.423Z,99.78
2023-11-03T09:27:41.412Z,99.05
2023-11-03T09:30:11.663Z,99.80
2023-11-03T09:32:40.078Z,98.39
2023-11-03T09:35:10.265Z,97.70
2023-11-03T09:37:38.270Z,96.48
2023-11-03T09:40:07.982Z,97.50
2023-11-03T09:42:36.061Z,97.99
2023-11-03T09:45:10.298Z,96.08
2023-11-03T09:47:39.560Z,94.57
2023-11-03T09:50:12.096Z,96.06
2023-11-03T09:52:43.664Z,93.71
2023-11-03T09:55:16.736Z,94.45
2023-11-03T09:57:44.789Z,92.98
2023-11-03T10:00:17.671Z,93.71
2023-11-03T10:02:45.651Z,91.63
2023-11-03T10:05:19.673Z,88.81
2023-11-03T10:07:57.072Z,87.55
2023-11-03T10:10:26.340Z,89.89
2023-11-03T10:12:54.945Z,86.71
2023-11-03T10:15:25.426Z,85.96
2023-11-03T10:17:54.451Z,85.25
2023-11-03T10:20:26.454Z,82.48
2023-11-03T10:22:54.822Z,79.54
2023-11-03T10:25:27.590Z,82.60
2023-11-03T10:27:57.477Z,83.01
2023-11-03T10:30:27.303Z,81.82
2023-11-03T10:32:56.940Z,80.98
2023-11-03T10:35:29.486Z,77.79
2023-11-03T10:37:59.105Z,79.29
2023-11-03T10:40:27.509Z,78.00
2023-11-03T10:42:58.408Z,77.31
2023-11-03T10:45:32.627Z,75.70
2023-11-03T10:48:10.152Z,76.45
2023-11-03T10:50:51.141Z,76.37
2023-11-03T10:53:25.772Z,75.18
2023-11-03T10:56:05.411Z,77.06
2023-11-03T10:58:45.755Z,75.23
2023-11-03T11:01:23.432Z,76.82
2023-11-03T11:03:59.694Z,76.82
2023-11-03T11:06:32.537Z,74.61
2023-11-03T11:09:06.232Z,75.12
2023-11-03T11:11:38.229Z,75.11
2023-11-03T11:14:19.097Z,76.82
2023-11-03T11:16:47.411Z,76.83
2023-11-03T11:19:17.043Z,77.22
2023-11-03T11:21:52.417Z,75.69
2023-11-03T11:24:23.114Z,74.13
2023-11-03T11:26:52.419Z,74.30
2023-11-03T11:29:29.032Z,74.15
2023-11-03T11:32:04.784Z,74.98
2023-11-03T11:34:38.185Z,74.13
2023-11-03T11:37:27.184Z,73.53
2023-11-03T11:39:55.915Z,73.33
2023-11-03T11:42:27.485Z,74.17
2023-11-03T11:44:55.672Z,73.86
2023-11-03T11:47:30.450Z,74.09
2023-11-03T11:49:59.625Z,73.92
2023-11-03T11:52:29.960Z,73.24
2023-11-03T11:55:00.190Z,73.15
2023-11-03T11:57:30.530Z,73.82
2023-11-03T11:59:58.658Z,74.63
2023-11-03T12:02:28.396Z,73.85
2023-11-03T12:05:05.112Z,74.43
2023-11-03T12:07:36.175Z,75.20
2023-11-03T12:10:06.157Z,74.95
2023-11-03T12:12:35.531Z,73.94
2023-11-03T12:15:06.886Z,74.18
2023-11-03T12:17:37.843Z,74.09
2023-11-03T12:20:15.421Z,74.37
2023-11-03T12:22:49.024Z,72.86
2023-11-03T12:25:23.858Z,73.65
2023-11-03T12:27:56.655Z,72.74
2023-11-03T12:30:25.323Z,72.68
2023-11-03T12:33:17.241Z,74.23
2023-11-03T12:35:46.213Z,72.81
2023-11-03T12:38:19.472Z,71.08
2023-11-03T12:40:51.884Z,71.04
2023-11-03T12:43:21.029Z,71.00
2023-11-03T12:46:05.312Z,71.58
2023-11-03T12:48:33.877Z,70.67
2023-11-03T12:51:05.468Z,70.90
2023-11-03T12:53:48.274Z,71.09
2023-11-03T12:56:20.578Z,71.23
2023-11-03T12:58:51.072Z,70.91
2023-11-03T13:01:19.908Z,72.27
2023-11-03T13:03:48.996Z,73.67
2023-11-03T13:06:17.191Z,69.92
2023-11-03T13:08:46.721Z,69.89
2023-11-03T13:11:14.581Z,70.42
2023-11-03T13:13:42.707Z,71.34
2023-11-03T13:16:13.521Z,71.02
2023-11-03T13:18:43.754Z,70.24
2023-11-03T13:21:12.279Z,69.75
2023-11-03T13:23:40.184Z,68.63
2023-11-03T13:26:10.764Z,69.39
2023-11-03T13:28:41.510Z,70.74
2023-11-03T13:31:13.371Z,70.35
2023-11-03T13:33:41.589Z,70.35
2023-11-03T13:36:13.314Z,70.11
2023-11-03T13:38:55.081Z,70.12
2023-11-03T13:41:27.237Z,69.25
2023-11-03T13:43:55.054Z,68.48
2023-11-03T13:46:22.976Z,69.30
2023-11-03T13:48:50.994Z,69.05
2023-11-03T13:51:18.903Z,69.53
2023-11-03T13:53:50.351Z,67.92
2023-11-03T13:56:22.294Z,68.99
2023-11-03T13:58:51.668Z,69.44
2023-11-03T14:01:19.529Z,69.68
2023-11-03T14:03:47.668Z,70.55
2023-11-03T14:06:16.406Z,70.75
2023-11-03T14:08:45.216Z,69.18
2023-11-03T14:11:14.937Z,68.97
2023-11-03T14:13:46.419Z,68.46
2023-11-03T14:16:18.929Z,68.71
2023-11-03T14:18:47.304Z,69.09
2023-11-03T14:21:17.709Z,69.37
2023-11-03T14:23:49.007Z,69.44
2023-11-03T14:26:19.096Z,69.46
2023-11-03T14:28:47.475Z,69.45
2023-11-03T14:31:21.537Z,69.21
2023-11-03T14:33:53.611Z,69.11
2023-11-03T14:36:43.577Z,69.88
2023-11-03T14:39:14.516Z,70.36
2023-11-03T14:41:46.113Z,70.43
2023-11-03T14:44:18.790Z,70.74
2023-11-03T14:47:06.625Z,71.00
2023-11-03T14:49:40.291Z,71.54
2023-11-03T14:52:10.534Z,71.32
2023-11-03T14:54:39.529Z,71.98
2023-11-03T14:57:11.493Z,71.89
2023-11-03T14:59:40.324Z,71.52
2023-11-03T15:02:10.482Z,71.93
2023-11-03T15:04:39.165Z,72.30
2023-11-03T15:07:08.047Z,72.77
2023-11-03T15:09:38.173Z,73.30
2023-11-03T15:12:07.055Z,74.60
2023-11-03T15:14:34.905Z,75.00
2023-11-03T15:17:06.752Z,74.60
2023-11-03T15:19:40.025Z,74.75
2023-11-03T15:22:08.978Z,75.69
2023-11-03T15:24:37.649Z,75.16
2023-11-03T15:27:06.390Z,75.18
2023-11-03T15:29:34.994Z,74.94
2023-11-03T15:32:04.723Z,75.57
2023-11-03T15:34:37.274Z,75.78
2023-11-03T15:37:09.736Z,76.26
2023-11-03T15:39:38.194Z,77.02
2023-11-03T15:42:08.308Z,76.88
2023-11-03T15:44:41.106Z,76.81
2023-11-03T15:47:09.937Z,77.71
2023-11-03T15:49:41.535Z,78.32
2023-11-03T15:52:12.742Z,78.03
2023-11-03T15:54:40.975Z,78.13
2023-11-03T15:57:09.262Z,78.16
2023-11-03T15:59:37.633Z,79.45
2023-11-03T16:02:08.335Z,78.98
2023-11-03T16:04:39.759Z,79.78
2023-11-03T16:07:11.752Z,80.90
2023-11-03T16:09:41.656Z,80.63
2023-11-03T16:12:12.223Z,80.53
2023-11-03T16:14:42.163Z,80.60
2023-11-03T16:17:10.559Z,80.79
2023-11-03T16:19:39.357Z,80.71
2023-11-03T16:22:10.785Z,81.34
2023-11-03T16:24:40.998Z,80.70
2023-11-03T16:27:09.851Z,80.23
2023-11-03T16:29:39.387Z,79.15
2023-11-03T16:32:09.232Z,79.54
2023-11-03T16:34:39.338Z,78.81
2023-11-03T16:37:09.083Z,79.55
2023-11-03T16:39:39.254Z,80.59
2023-11-03T16:42:08.478Z,79.94
2023-11-03T16:44:37.446Z,79.88
2023-11-03T16:47:07.270Z,80.08
2023-11-03T16:49:37.090Z,80.86
2023-11-03T16:52:06.757Z,78.76
2023-11-03T16:54:37.290Z,79.37
2023-11-03T16:57:07.091Z,79.04
2023-11-03T16:59:36.226Z,78.45
2023-11-03T17:02:06.235Z,78.35
2023-11-03T17:04:36.258Z,77.71
2023-11-03T17:07:06.625Z,77.35
2023-11-03T17:09:37.323Z,77.85
2023-11-03T17:12:06.786Z,77.67
2023-11-03T17:14:35.992Z,77.36
2023-11-03T17:17:04.905Z,77.10
2023-11-03T17:19:34.335Z,77.31
2023-11-03T17:22:02.840Z,77.39
2023-11-03T17:24:31.620Z,77.74
2023-11-03T17:27:01.525Z,78.36
2023-11-03T17:29:30.335Z,78.42
2023-11-03T17:31:59.146Z,78.34
2023-11-03T17:34:28.068Z,79.70
2023-11-03T17:36:56.832Z,79.44
2023-11-03T17:39:28.572Z,80.16
2023-11-03T17:41:57.465Z,80.05
2023-11-03T17:44:27.684Z,80.22
2023-11-03T17:46:56.795Z,80.91
2023-11-03T17:49:25.991Z,80.75
2023-11-03T17:51:55.512Z,79.98
2023-11-03T17:54:27.692Z,81.10
2023-11-03T17:56:58.724Z,80.96
2023-11-03T17:59:28.952Z,80.58
2023-11-03T18:01:57.353Z,79.56
2023-11-03T18:04:26.455Z,79.26
2023-11-03T18:06:56.222Z,80.16
2023-11-03T18:09:25.487Z,80.27
2023-11-03T18:11:54.730Z,80.68
2023-11-03T18:14:24.004Z,80.77
2023-11-03T18:16:54.077Z,81.17
2023-11-03T18:19:22.861Z,81.85
2023-11-03T18:21:51.920Z,81.40
2023-11-03T18:24:21.113Z,80.40
2023-11-03T18:26:49.680Z,80.03
2023-11-03T18:29:18.661Z,79.10
2023-11-03T18:31:47.886Z,78.96
2023-11-03T18:34:17.500Z,79.75
2023-11-03T18:36:46.826Z,78.80
2023-11-03T18:39:15.137Z,79.92
2023-11-03T18:41:44.098Z,81.05
2023-11-03T18:44:12.191Z,81.75
2023-11-03T18:46:43.048Z,82.35
2023-11-03T18:51:44.030Z,83.29
2023-11-03T19:02:19.427Z,82.83
2023-11-03T19:07:33.621Z,81.88
2023-11-03T19:10:01.419Z,81.55
2023-11-03T19:12:30.451Z,81.16
2023-11-03T19:14:58.855Z,81.11
2023-11-03T19:17:27.381Z,81.03
2023-11-03T19:19:55.477Z,80.35
2023-11-03T19:22:25.149Z,79.91
2023-11-03T19:24:54.558Z,79.05
2023-11-03T19:27:23.549Z,79.43
2023-11-03T19:29:52.185Z,79.65
2023-11-03T19:32:22.276Z,80.70
2023-11-03T19:34:51.579Z,78.53
2023-11-03T19:37:20.411Z,78.96
2023-11-03T19:39:50.497Z,78.47
2023-11-03T19:42:19.240Z,78.27
2023-11-03T19:44:47.966Z,78.29
2023-11-03T19:47:17.041Z,78.24
2023-11-03T19:49:45.422Z,77.19
2023-11-03T19:52:16.187Z,77.94
2023-11-03T19:54:45.277Z,77.43
2023-11-03T19:57:15.445Z,78.30
2023-11-03T19:59:44.204Z,77.73
2023-11-03T20:02:13.338Z,77.80
2023-11-03T20:04:41.570Z,78.07
2023-11-03T20:07:10.029Z,78.67
2023-11-03T20:09:39.105Z,77.66
2023-11-03T20:12:08.895Z,78.39
2023-11-03T20:14:42.808Z,78.03
2023-11-03T20:17:12.269Z,78.21
2023-11-03T20:19:41.928Z,77.45
2023-11-03T20:22:10.531Z,77.42
2023-11-03T20:24:39.691Z,77.81
2023-11-03T20:27:08.856Z,78.06
2023-11-03T20:29:38.988Z,78.04
2023-11-03T20:32:08.440Z,78.00
2023-11-03T20:34:37.311Z,77.91
2023-11-03T20:37:06.806Z,77.71
2023-11-03T20:39:35.474Z,77.61
2023-11-03T20:42:04.455Z,77.50
2023-11-03T20:44:35.043Z,77.39
2023-11-03T20:47:05.540Z,77.79
2023-11-03T20:49:33.990Z,77.72
2023-11-03T20:52:02.667Z,77.88
2023-11-03T20:54:31.509Z,78.32
2023-11-03T20:57:01.496Z,77.65
2023-11-03T20:59:29.575Z,77.76
2023-11-03T21:01:58.145Z,77.72
2023-11-03T21:04:28.098Z,77.57
2023-11-03T21:06:56.533Z,76.99
2023-11-03T21:09:26.463Z,77.26
2023-11-03T21:11:54.640Z,77.63
2023-11-03T21:14:23.476Z,77.56
2023-11-03T21:16:51.322Z,77.64
2023-11-03T21:19:19.278Z,77.46
2023-11-03T21:21:48.823Z,77.13
2023-11-03T21:24:16.812Z,77.53
2023-11-03T21:26:45.823Z,77.79
2023-11-03T21:29:13.904Z,78.52
2023-11-03T21:31:42.981Z,77.86
2023-11-03T21:34:12.133Z,77.93
2023-11-03T21:36:41.071Z,78.42
2023-11-03T21:39:14.854Z,78.03
2023-11-03T21:41:45.285Z,78.53
2023-11-03T21:44:13.903Z,78.45
2023-11-03T21:46:42.703Z,78.30
2023-11-03T21:49:11.976Z,78.31
2023-11-03T21:51:42.476Z,78.96
2023-11-03T21:54:12.689Z,79.62
2023-11-03T21:56:41.797Z,79.67
2023-11-03T21:59:10.509Z,79.96
2023-11-03T22:01:38.445Z,79.48
2023-11-03T22:04:07.405Z,79.31
2023-11-03T22:06:36.446Z,78.27
2023-11-03T22:09:09.885Z,78.79
2023-11-03T22:11:40.017Z,78.16
2023-11-03T22:14:09.206Z,78.64
2023-11-03T22:16:38.287Z,78.54
2023-11-03T22:19:07.445Z,78.67
2023-11-03T22:21:36.067Z,78.63
2023-11-03T22:24:05.518Z,78.00
2023-11-03T22:26:39.922Z,77.87
2023-11-03T22:29:14.715Z,78.46
2023-11-03T22:31:45.335Z,78.37
2023-11-03T22:34:14.807Z,78.60
2023-11-03T22:36:43.370Z,77.60
2023-11-03T22:39:12.136Z,77.42
2023-11-03T22:41:40.803Z,77.33
2023-11-03T22:44:09.704Z,77.11
2023-11-03T22:46:39.541Z,76.95
2023-11-03T22:49:08.949Z,77.57
2023-11-03T22:51:37.867Z,77.25
2023-11-03T22:54:07.256Z,77.77
2023-11-03T22:56:36.384Z,77.33
2023-11-03T22:59:05.104Z,77.47
2023-11-03T23:01:40.887Z,77.81
2023-11-03T23:04:14.130Z,78.38
2023-11-03T23:06:43.556Z,78.41
2023-11-03T23:09:13.374Z,78.81
2023-11-03T23:11:42.712Z,78.46
2023-11-03T23:14:11.884Z,78.41
2023-11-03T23:16:41.204Z,78.37
2023-11-03T23:19:12.123Z,78.88
2023-11-03T23:21:41.490Z,78.70
2023-11-03T23:24:13.012Z,79.35
2023-11-03T23:26:42.068Z,78.83
2023-11-03T23:29:13.496Z,78.37
2023-11-03T23:31:42.467Z,77.75
2023-11-03T23:34:13.265Z,78.39
2023-11-03T23:36:41.719Z,78.70
2023-11-03T23:39:08.736Z,78.40
2023-11-03T23:41:37.468Z,78.96
2023-11-03T23:44:08.180Z,78.22
2023-11-03T23:46:37.316Z,78.60
2023-11-03T23:49:05.546Z,78.56
2023-11-03T23:51:34.996Z,78.98
2023-11-03T23:54:03.337Z,77.98
2023-11-03T23:56:31.230Z,77.85
2023-11-03T23:58:59.314Z,78.38
